Time;durP1;ratioP1;P1;durP2;ratioP2;P2;SDS_P1;SDS_P2;PMS_P1;PMS_P2;Temp;Humidity;BMP_temperature;BMP_pressure;BME280_temperature;BME280_humidity;BME280_pressure;Samples;Min_cycle;Max_cycle;Signal;HPM_P1;HPM_P2
2023/10/10 00:02:28;;;;;;;31.27;27.92;;;;;;;13.07;100.00;102007.25;5018242;28;20432;-78
2023/10/10 00:04:56;;;;;;;30.98;27.58;;;;;;;13.08;100.00;101999.22;5034889;28;20040;-78
2023/10/10 00:07:23;;;;;;;34.65;28.02;;;;;;;13.13;100.00;102002.38;5047922;28;20036;-78
2023/10/10 00:09:50;;;;;;;39.63;31.42;;;;;;;13.11;100.00;102006.94;5034976;28;20111;-83
2023/10/10 00:12:25;;;;;;;34.28;30.60;;;;;;;13.18;100.00;101999.47;5035941;28;20393;-83
2023/10/10 00:14:51;;;;;;;34.53;30.75;;;;;;;13.18;100.00;101997.69;5052066;28;20021;-79
2023/10/10 00:17:34;;;;;;;33.92;30.23;;;;;;;13.19;100.00;102009.09;5051402;28;20094;-78
2023/10/10 00:20:15;;;;;;;39.25;30.90;;;;;;;13.20;100.00;101997.56;5050756;28;20112;-79
2023/10/10 00:22:47;;;;;;;35.63;30.83;;;;;;;13.20;100.00;102002.84;5053023;28;20027;-79
2023/10/10 00:25:14;;;;;;;37.60;31.60;;;;;;;13.16;100.00;102002.19;5032339;28;20036;-79
2023/10/10 00:27:39;;;;;;;36.80;31.05;;;;;;;13.14;100.00;101998.81;5034759;28;20029;-83
2023/10/10 00:30:06;;;;;;;36.03;31.88;;;;;;;13.13;100.00;102005.03;5035014;28;20040;-82
2023/10/10 00:32:35;;;;;;;35.30;30.67;;;;;;;13.13;100.00;102002.38;5044031;28;20504;-83
2023/10/10 00:35:05;;;;;;;33.95;29.58;;;;;;;13.13;100.00;102002.38;5031735;28;20079;-79
2023/10/10 00:37:34;;;;;;;33.80;30.10;;;;;;;13.13;100.00;101997.09;5032835;28;20033;-79
2023/10/10 00:40:07;;;;;;;31.00;27.65;;;;;;;13.09;100.00;101997.41;5048062;28;20021;-79
2023/10/10 00:42:42;;;;;;;32.90;28.38;;;;;;;13.08;100.00;101996.56;5040397;28;20094;-79
2023/10/10 00:45:12;;;;;;;37.17;30.10;;;;;;;13.04;100.00;102000.38;5064447;28;20033;-79
2023/10/10 00:47:42;;;;;;;31.83;28.27;;;;;;;13.04;100.00;101996.88;5031337;28;20029;-80
2023/10/10 00:50:18;;;;;;;36.58;30.75;;;;;;;13.08;100.00;101996.56;5027139;28;20026;-79
2023/10/10 00:52:55;;;;;;;34.38;29.63;;;;;;;13.03;100.00;101996.03;5045306;28;20029;-79
2023/10/10 00:55:24;;;;;;;34.05;30.42;;;;;;;13.02;100.00;101988.19;5033450;28;20024;-79
2023/10/10 00:57:55;;;;;;;32.17;28.77;;;;;;;12.99;100.00;101994.53;5051334;28;20033;-79
2023/10/10 01:00:30;;;;;;;32.40;27.88;;;;;;;12.98;100.00;101987.56;5049098;28;20041;-83
2023/10/10 01:03:06;;;;;;;31.90;28.45;;;;;;;12.97;100.00;101985.88;5043999;28;20025;-83
2023/10/10 01:05:42;;;;;;;33.17;28.60;;;;;;;12.97;100.00;101980.59;5052158;28;20026;-79
2023/10/10 01:08:07;;;;;;;38.53;29.83;;;;;;;12.99;100.00;101972.56;5049085;28;20161;-79
2023/10/10 01:10:42;;;;;;;38.08;29.50;;;;;;;12.95;100.00;101971.91;5028596;28;20543;-79
2023/10/10 01:13:10;;;;;;;33.13;29.55;;;;;;;12.87;100.00;101966.28;5033690;28;20509;-80
2023/10/10 01:15:37;;;;;;;32.40;28.67;;;;;;;12.90;100.00;101968.72;5030289;28;20025;-79
2023/10/10 01:18:03;;;;;;;32.53;28.98;;;;;;;12.89;100.00;101969.69;5032872;28;20327;-79
2023/10/10 01:20:45;;;;;;;33.00;29.02;;;;;;;12.85;100.00;101963.75;5050979;28;20032;-79
2023/10/10 01:23:26;;;;;;;31.88;28.17;;;;;;;12.86;100.00;101962.81;5011614;28;20106;-80
2023/10/10 01:25:52;;;;;;;33.85;30.27;;;;;;;12.85;100.00;101952.34;5011721;28;20021;-79
2023/10/10 01:33:22;;;;;;;37.38;31.80;;;;;;;12.88;100.00;101949.50;5035702;28;20041;-79
2023/10/10 01:36:02;;;;;;;35.03;31.30;;;;;;;12.86;100.00;101946.13;5038889;28;20025;-83
2023/10/10 01:38:41;;;;;;;37.92;32.13;;;;;;;12.88;100.00;101949.50;5049592;28;20123;-79
2023/10/10 01:41:22;;;;;;;37.13;33.15;;;;;;;12.89;100.00;101945.06;5027670;28;20034;-80
2023/10/10 01:44:08;;;;;;;36.97;32.97;;;;;;;12.86;100.00;101944.31;5030974;28;20017;-80
2023/10/10 01:46:35;;;;;;;35.80;31.92;;;;;;;12.91;100.00;101930.81;5030712;28;20025;-80
2023/10/10 01:49:06;;;;;;;37.72;33.72;;;;;;;12.93;100.00;101938.63;5030493;28;20053;-80
2023/10/10 01:51:35;;;;;;;38.35;33.97;;;;;;;12.93;100.00;101931.53;5031325;28;20429;-80
2023/10/10 01:54:11;;;;;;;41.05;34.60;;;;;;;12.93;100.00;101931.53;5036578;28;20024;-80
2023/10/10 01:56:38;;;;;;;41.90;34.85;;;;;;;12.86;100.00;101928.47;5016385;28;20044;-80
2023/10/10 01:59:04;;;;;;;40.20;33.60;;;;;;;12.87;100.00;101929.31;5019016;28;20032;-80
2023/10/10 02:01:31;;;;;;;39.35;34.10;;;;;;;12.86;100.00;101927.63;5029967;28;20029;-80
2023/10/10 02:03:58;;;;;;;40.95;34.88;;;;;;;12.83;100.00;101914.63;5039043;28;20028;-80
2023/10/10 02:06:28;;;;;;;41.58;35.20;;;;;;;12.84;100.00;101919.81;5028883;28;20036;-80
2023/10/10 02:09:00;;;;;;;41.30;34.42;;;;;;;12.89;100.00;101919.50;5043469;28;20032;-80
2023/10/10 02:11:31;;;;;;;39.92;35.72;;;;;;;12.86;100.00;101914.41;5041902;28;20049;-80
2023/10/10 02:13:58;;;;;;;39.70;34.25;;;;;;;12.88;100.00;101917.81;5032637;28;20422;-80
2023/10/10 02:16:34;;;;;;;40.10;34.35;;;;;;;12.85;100.00;101904.81;5028163;28;20473;-80
2023/10/10 02:19:06;;;;;;;40.25;35.13;;;;;;;12.87;100.00;101902.91;5035005;28;20029;-80
2023/10/10 02:21:31;;;;;;;40.08;35.42;;;;;;;12.89;100.00;101898.38;5029703;28;20025;-80
2023/10/10 02:24:19;;;;;;;38.95;34.75;;;;;;;12.85;100.00;101904.81;5047345;28;20151;-80
2023/10/10 02:26:51;;;;;;;45.90;36.72;;;;;;;12.78;100.00;101899.06;5048485;28;20504;-80
2023/10/10 02:29:18;;;;;;;43.25;35.13;;;;;;;12.82;100.00;101894.44;5050197;28;20032;-81
2023/10/10 02:31:55;;;;;;;41.08;34.97;;;;;;;12.76;100.00;101892.19;5050354;28;20493;-84
2023/10/10 02:34:21;;;;;;;39.78;35.42;;;;;;;12.78;100.00;101882.38;5037516;28;20075;-84
2023/10/10 02:37:05;;;;;;;42.05;36.25;;;;;;;12.77;100.00;101884.16;5028986;28;20548;-80
2023/10/10 02:39:32;;;;;;;43.83;36.65;;;;;;;12.77;100.00;101883.31;5030670;28;20021;-81
2023/10/10 02:42:02;;;;;;;45.95;36.97;;;;;;;12.77;100.00;101883.31;5029634;28;20022;-81
2023/10/10 02:44:46;;;;;;;45.80;36.83;;;;;;;12.77;100.00;101888.59;5045974;28;20025;-80
2023/10/10 02:47:12;;;;;;;41.55;35.83;;;;;;;12.77;100.00;101888.59;5063906;28;20477;-81
2023/10/10 02:49:38;;;;;;;42.47;36.90;;;;;;;12.76;100.00;101892.19;5047005;28;20045;-81
2023/10/10 02:52:06;;;;;;;42.03;35.58;;;;;;;12.76;100.00;101892.19;5045718;28;20171;-81
2023/10/10 02:54:36;;;;;;;43.15;36.50;;;;;;;12.75;100.00;101887.84;5044762;28;20083;-81
2023/10/10 02:59:52;;;;;;;40.17;35.88;;;;;;;12.70;100.00;101893.44;5028902;28;20555;-80
2023/10/10 03:02:28;;;;;;;41.95;35.88;;;;;;;12.73;100.00;101889.75;5035889;28;20086;-81
2023/10/10 03:07:29;;;;;;;45.35;37.40;;;;;;;12.72;100.00;101888.91;5039229;28;20034;-80
2023/10/10 03:12:41;;;;;;;45.65;38.55;;;;;;;12.73;100.00;101884.47;5030408;28;20037;-81
2023/10/10 03:15:27;;;;;;;43.50;38.88;;;;;;;12.73;100.00;101881.81;5038264;28;20451;-80
2023/10/10 03:21:12;;;;;;;44.40;38.15;;;;;;;12.76;100.00;101887.75;5016522;28;20045;-81
2023/10/10 03:23:35;;;;;;;44.70;38.90;;;;;;;12.74;100.00;101889.66;5025888;28;20034;-80
2023/10/10 03:26:06;;;;;;;50.35;39.15;;;;;;;12.75;100.00;101891.34;5029631;28;20083;-81
2023/10/10 03:28:41;;;;;;;46.17;39.85;;;;;;;12.72;100.00;101885.41;5028180;28;20491;-80
2023/10/10 03:34:01;;;;;;;49.03;39.88;;;;;;;12.69;100.00;101886.47;5010019;28;20034;-81
2023/10/10 03:36:41;;;;;;;49.33;40.63;;;;;;;12.70;100.00;101888.16;5008565;28;20049;-81
2023/10/10 05:23:47;;;;;;;42.85;36.47;;;;;;;12.29;100.00;101829.31;5032534;28;20083;-81
2023/10/10 05:26:19;;;;;;;43.80;35.78;;;;;;;12.29;100.00;101835.44;5034565;28;20044;-81
2023/10/10 05:28:57;;;;;;;40.53;35.00;;;;;;;12.28;100.00;101823.19;5031541;28;20075;-81
2023/10/10 05:31:32;;;;;;;42.25;34.60;;;;;;;12.32;100.00;101829.97;5009492;28;20268;-81
2023/10/10 05:34:02;;;;;;;40.95;33.75;;;;;;;12.27;100.00;101821.50;5026727;28;20124;-82
2023/10/10 05:36:28;;;;;;;39.80;33.35;;;;;;;12.29;100.00;101824.88;5011420;28;20065;-81
2023/10/10 05:38:53;;;;;;;39.40;33.20;;;;;;;12.28;100.00;101820.56;5016445;28;20060;-81
2023/10/10 05:41:22;;;;;;;38.33;32.45;;;;;;;12.27;100.00;101820.66;5044361;28;20078;-81
2023/10/10 05:43:49;;;;;;;40.63;32.35;;;;;;;12.23;100.00;101810.31;5028996;28;20108;-81
2023/10/10 05:46:15;;;;;;;40.13;31.20;;;;;;;12.22;100.00;101818.31;5032730;28;20040;-81
2023/10/10 05:48:46;;;;;;;38.08;31.58;;;;;;;12.22;100.00;101816.53;5050314;28;20027;-82
2023/10/10 05:51:14;;;;;;;35.42;30.17;;;;;;;12.20;100.00;101831.63;5042041;28;20132;-82
2023/10/10 05:53:40;;;;;;;35.97;30.10;;;;;;;12.19;100.00;101829.94;5040970;28;20051;-82
2023/10/10 05:56:16;;;;;;;34.08;29.40;;;;;;;12.17;100.00;101817.78;5042899;28;20061;-81
2023/10/10 05:58:44;;;;;;;34.05;28.50;;;;;;;12.16;100.00;101824.00;5034378;28;20028;-82
2023/10/10 06:01:30;;;;;;;37.17;28.67;;;;;;;12.17;100.00;101820.41;5030750;28;20098;-82
2023/10/10 06:03:56;;;;;;;38.42;28.50;;;;;;;12.11;100.00;101813.75;5031613;28;20028;-82
2023/10/10 06:06:21;;;;;;;34.53;28.55;;;;;;;12.12;100.00;101810.16;5027732;28;20037;-82
2023/10/10 06:09:00;;;;;;;33.35;27.55;;;;;;;12.11;100.00;101813.75;5027800;28;20022;-81
2023/10/10 06:11:27;;;;;;;35.42;27.40;;;;;;;12.11;100.00;101812.91;5029431;28;20045;-82
2023/10/10 06:13:53;;;;;;;33.58;27.23;;;;;;;12.08;100.00;101806.03;5042174;28;20026;-82
2023/10/10 06:16:20;;;;;;;35.75;27.35;;;;;;;12.09;100.00;101804.25;5041090;28;20441;-82
2023/10/10 06:18:50;;;;;;;33.42;26.15;;;;;;;12.06;100.00;101813.22;5038897;28;20028;-81
2023/10/10 11:47:07;;;;;;;12.57;9.68;;;;;;;21.52;70.50;101701.06;5165248;27;20666;-84
2023/10/10 11:49:33;;;;;;;13.82;9.45;;;;;;;21.67;69.78;101702.13;5148555;27;20023;-86
2023/10/10 11:51:59;;;;;;;17.23;10.57;;;;;;;21.65;68.54;101701.44;5135017;27;20023;-85
2023/10/10 11:54:27;;;;;;;15.27;9.38;;;;;;;21.78;69.52;101703.63;5136392;27;20023;-87
2023/10/10 11:56:53;;;;;;;20.88;9.70;;;;;;;21.87;68.53;101694.59;5126919;27;20031;-87
2023/10/10 11:59:18;;;;;;;15.95;9.15;;;;;;;22.06;68.91;101696.16;5125738;27;20043;-87
2023/10/10 12:01:51;;;;;;;15.40;8.77;;;;;;;22.14;66.80;101696.13;5126946;27;20022;-87
2023/10/10 12:04:32;;;;;;;16.08;8.95;;;;;;;22.31;66.04;101689.75;5157815;27;20027;-87
2023/10/10 12:07:01;;;;;;;17.48;9.88;;;;;;;22.30;64.27;101696.13;5155481;27;20067;-86
2023/10/10 12:09:28;;;;;;;13.32;8.25;;;;;;;22.51;65.40;101688.38;5122442;28;20039;-87
2023/10/10 12:11:58;;;;;;;13.00;8.93;;;;;;;22.56;63.67;101687.88;5128534;27;20020;-87
2023/10/10 12:14:29;;;;;;;16.90;9.07;;;;;;;22.52;62.55;101683.84;5121597;27;20026;-87
2023/10/10 12:16:57;;;;;;;13.27;8.73;;;;;;;22.54;61.95;101689.06;5118951;28;20341;-86
2023/10/10 12:19:23;;;;;;;12.65;8.20;;;;;;;22.58;61.39;101687.69;5120450;27;20108;-85
2023/10/10 12:21:48;;;;;;;11.15;8.68;;;;;;;22.50;61.48;101684.03;5138084;27;20478;-80
2023/10/10 12:24:14;;;;;;;12.75;8.55;;;;;;;22.57;61.67;101680.66;5144652;27;20035;-81
2023/10/10 12:26:41;;;;;;;13.73;8.25;;;;;;;22.71;61.30;101674.56;5118191;27;20030;-81
2023/10/10 12:29:10;;;;;;;15.30;8.25;;;;;;;22.78;62.47;101668.34;5133865;27;20038;-81
2023/10/10 12:31:36;;;;;;;13.07;7.95;;;;;;;22.97;62.44;101671.66;5140657;27;20483;-82
2023/10/10 12:34:02;;;;;;;13.27;8.20;;;;;;;22.89;58.21;101659.13;5135993;27;20027;-81
2023/10/10 12:36:32;;;;;;;14.38;8.18;;;;;;;22.85;58.27;101656.97;5124647;27;20118;-82
2023/10/10 12:38:59;;;;;;;15.20;7.57;;;;;;;22.91;57.37;101646.38;5137174;27;20051;-81
2023/10/10 12:41:25;;;;;;;15.13;7.63;;;;;;;22.84;56.75;101655.28;5136820;27;20093;-82
2023/10/10 12:43:50;;;;;;;14.35;7.43;;;;;;;22.87;57.32;101650.41;5129591;27;20027;-83
2023/10/10 12:46:22;;;;;;;11.63;7.05;;;;;;;23.17;57.92;101650.59;5135978;27;20059;-81
2023/10/10 12:48:51;;;;;;;14.07;6.77;;;;;;;23.27;56.67;101651.22;5132499;27;20024;-83
2023/10/10 12:51:16;;;;;;;15.30;6.90;;;;;;;23.31;53.75;101652.53;5132377;27;20296;-82
2023/10/10 12:53:42;;;;;;;12.27;6.60;;;;;;;23.25;53.96;101647.88;5107353;27;20026;-83
2023/10/10 12:56:16;;;;;;;13.75;6.72;;;;;;;23.41;56.54;101648.59;5113230;27;20011;-83
2023/10/10 12:58:43;;;;;;;13.07;6.43;;;;;;;23.57;55.83;101645.00;5108828;27;20103;-82
2023/10/10 13:01:12;;;;;;;13.73;5.80;;;;;;;23.59;56.29;101642.97;5129666;27;20015;-82
2023/10/10 13:03:38;;;;;;;9.98;6.40;;;;;;;23.51;53.21;101648.38;5132646;27;20030;-83
2023/10/10 13:06:04;;;;;;;14.77;6.80;;;;;;;23.34;53.95;101644.13;5130691;27;20019;-82
2023/10/10 13:08:47;;;;;;;11.27;6.05;;;;;;;23.30;56.71;101648.19;5123238;27;20324;-83
2023/10/10 13:11:14;;;;;;;11.15;6.53;;;;;;;23.32;53.11;101649.69;5100079;27;20677;-87
2023/10/10 13:13:56;;;;;;;11.27;6.10;;;;;;;23.47;56.04;101651.59;5132352;27;20034;-89
2023/10/10 13:16:51;;;;;;;11.27;6.03;;;;;;;23.40;54.69;101640.72;5118898;27;20039;-87
2023/10/10 13:19:12;;;;;;;13.93;6.65;;;;;;;23.42;53.17;101638.69;5110584;28;20031;-88
2023/10/10 13:21:38;;;;;;;10.35;6.45;;;;;;;23.35;55.42;101643.09;5098433;28;20373;-87
2023/10/10 13:24:09;;;;;;;11.15;6.10;;;;;;;23.41;54.56;101642.41;5131590;27;20037;-89
2023/10/10 13:26:36;;;;;;;11.00;6.82;;;;;;;23.35;54.06;101643.09;5108093;27;20058;-85
2023/10/10 13:29:02;;;;;;;11.85;6.30;;;;;;;23.31;54.68;101642.63;5121300;27;20022;-89
2023/10/10 13:31:29;;;;;;;12.27;6.05;;;;;;;23.29;54.57;101639.28;5132219;27;20641;-85
2023/10/10 13:33:54;;;;;;;10.00;5.80;;;;;;;23.37;53.79;101638.41;5109563;27;20508;-87
2023/10/10 13:36:20;;;;;;;13.15;6.05;;;;;;;23.33;54.99;101650.50;5112937;27;20237;-86
2023/10/10 13:38:50;;;;;;;9.38;5.38;;;;;;;23.32;54.45;101638.94;5116134;27;20450;-88
2023/10/10 13:41:16;;;;;;;14.60;5.70;;;;;;;23.32;55.23;101647.00;5117560;27;20019;-88
2023/10/10 13:43:48;;;;;;;13.90;5.68;;;;;;;23.40;55.81;101643.41;5122288;27;20019;-88
2023/10/10 13:46:15;;;;;;;16.50;5.80;;;;;;;23.37;54.83;101641.09;5130526;27;20118;-87
2023/10/10 13:48:41;;;;;;;12.10;5.22;;;;;;;23.27;56.09;101627.88;5131310;27;20027;-88
2023/10/10 13:51:07;;;;;;;10.80;5.15;;;;;;;23.52;57.37;101625.84;5099151;28;20031;-89
2023/10/10 13:53:33;;;;;;;8.77;5.40;;;;;;;23.53;54.97;101624.84;5103872;27;20388;-86
2023/10/10 13:56:00;;;;;;;11.15;5.40;;;;;;;23.62;55.59;101628.34;5114625;27;20023;-86
2023/10/10 13:58:26;;;;;;;13.05;5.45;;;;;;;23.51;53.70;101624.19;5099491;27;20087;-87
2023/10/10 14:03:36;;;;;;;11.50;5.13;;;;;;;23.64;52.68;101618.25;5122373;27;20050;-86
2023/10/10 14:06:08;;;;;;;10.45;5.55;;;;;;;23.54;52.51;101618.44;5096398;27;20420;-87
2023/10/10 14:08:33;;;;;;;8.38;5.85;;;;;;;23.51;53.62;101617.97;5124394;27;20408;-88
2023/10/10 14:11:00;;;;;;;11.10;5.38;;;;;;;23.49;52.99;101625.38;5100929;27;20031;-88
2023/10/10 14:13:28;;;;;;;11.82;5.78;;;;;;;23.54;52.73;101623.81;5115040;27;20023;-87
2023/10/10 14:15:54;;;;;;;12.35;5.32;;;;;;;23.58;55.95;101606.34;5114439;27;20891;-88
2023/10/10 14:18:21;;;;;;;10.77;4.85;;;;;;;23.55;55.02;101614.78;5111713;27;20118;-87
2023/10/10 14:20:48;;;;;;;8.15;5.07;;;;;;;23.52;52.31;101611.59;5108338;27;20503;-88
2023/10/10 14:23:14;;;;;;;9.70;5.28;;;;;;;23.51;51.88;101612.59;5121696;27;20023;-88
2023/10/10 14:25:45;;;;;;;11.57;4.95;;;;;;;23.48;54.12;101610.28;5114058;27;20019;-88
2023/10/10 14:28:16;;;;;;;9.13;4.60;;;;;;;23.52;51.83;101608.91;5097925;28;20026;-89
2023/10/10 14:30:42;;;;;;;10.07;5.07;;;;;;;23.57;54.00;101599.31;5129746;27;20027;-88
2023/10/10 14:33:08;;;;;;;8.65;4.82;;;;;;;23.56;53.54;101603.00;5111246;27;20472;-86
2023/10/10 14:35:37;;;;;;;9.63;4.65;;;;;;;23.63;51.97;101598.63;5122036;27;20062;-87
2023/10/10 14:38:04;;;;;;;12.48;5.50;;;;;;;23.56;50.26;101586.91;5099355;28;20430;-81
2023/10/10 14:40:31;;;;;;;10.65;5.03;;;;;;;23.47;49.16;101581.75;5089874;27;20031;-82
2023/10/10 14:42:56;;;;;;;10.10;5.18;;;;;;;23.51;49.83;101586.56;5111224;27;20028;-82
2023/10/10 14:45:24;;;;;;;10.73;5.00;;;;;;;23.51;51.24;101575.81;5110720;27;20043;-82
2023/10/10 14:47:51;;;;;;;7.45;4.57;;;;;;;23.49;50.69;101580.53;5105650;27;20475;-82
2023/10/10 14:50:23;;;;;;;11.82;4.63;;;;;;;23.40;51.28;101582.47;5127708;27;20015;-82
2023/10/10 14:52:51;;;;;;;9.10;5.32;;;;;;;23.37;50.16;101582.00;5122749;27;20034;-81
2023/10/10 14:55:27;;;;;;;11.63;5.30;;;;;;;23.31;48.65;101580.03;5105903;27;20015;-82
2023/10/10 14:57:55;;;;;;;13.25;4.95;;;;;;;23.18;49.89;101575.22;5089850;28;20184;-82
2023/10/10 15:00:22;;;;;;;10.18;4.65;;;;;;;23.14;50.62;101573.91;5091701;28;20075;-82
2023/10/10 15:02:47;;;;;;;7.93;4.45;;;;;;;23.08;49.45;101569.25;5125194;27;20023;-82
2023/10/10 15:05:14;;;;;;;9.43;4.80;;;;;;;23.02;50.28;101568.13;5118489;27;20396;-82
2023/10/10 15:07:41;;;;;;;9.98;4.65;;;;;;;22.96;51.18;101558.09;5113008;27;20027;-82
2023/10/10 15:10:07;;;;;;;8.32;4.68;;;;;;;22.91;50.88;101560.47;5116048;27;20057;-82
2023/10/10 15:12:34;;;;;;;10.57;4.93;;;;;;;22.75;52.26;101555.16;5125418;27;20042;-82
2023/10/10 15:15:00;;;;;;;11.35;4.95;;;;;;;22.74;51.42;101554.31;5101837;27;20482;-82
2023/10/10 15:17:29;;;;;;;7.88;4.63;;;;;;;22.65;51.94;101549.19;5109482;27;20121;-82
2023/10/10 15:19:54;;;;;;;14.93;4.72;;;;;;;22.64;53.43;101551.03;5094528;27;20289;-82
2023/10/10 15:22:19;;;;;;;10.68;5.25;;;;;;;22.62;52.13;101555.72;5109811;27;20072;-82
2023/10/10 15:24:51;;;;;;;9.20;5.25;;;;;;;22.52;52.32;101550.59;5117095;27;20043;-81
2023/10/10 15:27:17;;;;;;;13.48;4.85;;;;;;;22.46;51.80;101550.44;5109049;27;20019;-82
2023/10/10 15:29:43;;;;;;;8.75;4.90;;;;;;;22.25;55.42;101542.97;5096895;27;20023;-81
2023/10/10 15:32:13;;;;;;;14.23;5.00;;;;;;;22.23;53.82;101542.31;5125962;27;20360;-81
2023/10/10 15:34:38;;;;;;;7.28;4.63;;;;;;;22.09;54.64;101543.03;5128699;28;20031;-81
2023/10/10 15:37:14;;;;;;;8.73;4.90;;;;;;;21.96;52.97;101530.09;5110876;28;20015;-81
2023/10/10 15:39:41;;;;;;;8.77;4.60;;;;;;;21.87;56.07;101539.16;5116154;28;20030;-87
2023/10/10 15:42:07;;;;;;;8.00;4.90;;;;;;;21.78;54.02;101540.19;5118567;28;20027;-88
2023/10/10 15:44:32;;;;;;;8.90;5.13;;;;;;;21.66;55.57;101525.50;5114414;27;20440;-86
2023/10/10 15:46:58;;;;;;;11.43;4.93;;;;;;;21.65;55.60;101537.22;5117271;28;20412;-82
2023/10/10 15:49:25;;;;;;;9.50;5.03;;;;;;;21.49;56.41;101530.84;5128944;28;20125;-82
2023/10/10 15:51:52;;;;;;;14.07;4.75;;;;;;;21.41;58.79;101532.69;5086877;28;20110;-82
2023/10/10 15:54:18;;;;;;;8.32;4.65;;;;;;;21.25;61.24;101533.53;5092178;28;20043;-81
2023/10/10 15:56:46;;;;;;;10.25;5.00;;;;;;;21.15;58.25;101528.28;5111237;28;20111;-82
2023/10/10 15:59:14;;;;;;;10.73;5.20;;;;;;;21.01;61.01;101530.78;5104603;28;20069;-81
2023/10/10 16:01:43;;;;;;;10.32;5.72;;;;;;;20.89;61.07;101527.59;5112089;28;20083;-82
2023/10/10 16:04:17;;;;;;;8.50;4.90;;;;;;;20.83;61.07;101522.91;5109712;28;20058;-82
2023/10/10 16:06:46;;;;;;;10.80;5.32;;;;;;;20.73;59.70;101527.53;5111419;28;20103;-82
2023/10/10 16:09:20;;;;;;;14.23;5.35;;;;;;;20.60;59.68;101518.13;5117797;28;20023;-82
2023/10/10 16:11:52;;;;;;;9.50;5.03;;;;;;;20.51;60.44;101521.78;5108299;28;20073;-82
2023/10/10 16:14:18;;;;;;;9.18;5.07;;;;;;;20.45;60.58;101524.28;5121302;28;20027;-82
2023/10/10 16:16:47;;;;;;;10.52;5.05;;;;;;;20.33;61.14;101516.50;5093501;28;20060;-82
2023/10/10 16:19:13;;;;;;;12.70;5.45;;;;;;;20.28;60.96;101517.97;5117595;28;20024;-82
2023/10/10 16:21:42;;;;;;;10.15;4.93;;;;;;;20.21;61.76;101511.59;5112797;27;20697;-82
2023/10/10 16:24:14;;;;;;;10.52;5.28;;;;;;;20.15;61.62;101515.75;5112508;27;20019;-82
2023/10/10 16:26:43;;;;;;;11.35;5.68;;;;;;;20.08;62.63;101513.88;5094349;28;20488;-81
2023/10/10 16:29:11;;;;;;;13.15;5.13;;;;;;;19.99;63.63;101516.47;5112489;27;20045;-81
2023/10/10 16:31:36;;;;;;;9.55;5.10;;;;;;;19.96;62.32;101519.47;5128291;27;20020;-81
2023/10/10 16:34:03;;;;;;;12.13;5.65;;;;;;;19.87;63.32;101517.75;5124011;27;20031;-81
2023/10/10 16:36:29;;;;;;;10.63;5.45;;;;;;;19.77;63.71;101516.19;5132099;27;20064;-88
2023/10/10 16:38:55;;;;;;;9.68;5.72;;;;;;;19.68;63.85;101516.13;5117405;27;20539;-87
2023/10/10 16:41:22;;;;;;;13.55;5.47;;;;;;;19.58;65.90;101519.88;5119887;27;20031;-87
2023/10/10 16:43:48;;;;;;;8.60;5.35;;;;;;;19.50;64.27;101523.28;5092481;28;20077;-82
2023/10/10 16:46:13;;;;;;;13.90;5.85;;;;;;;19.38;65.94;101520.03;5111438;27;20043;-80
2023/10/10 16:48:48;;;;;;;10.02;5.95;;;;;;;19.34;65.54;101524.00;5093381;27;20115;-81
2023/10/10 16:51:15;;;;;;;10.57;5.38;;;;;;;19.21;67.58;101523.56;5108211;27;20062;-83
2023/10/10 16:53:43;;;;;;;13.63;5.38;;;;;;;19.13;67.96;101514.63;5092809;28;20028;-80
2023/10/10 16:56:15;;;;;;;11.20;5.22;;;;;;;19.02;68.28;101508.53;5107323;27;20019;-82
2023/10/10 16:58:42;;;;;;;10.18;5.43;;;;;;;18.95;68.68;101517.31;5107357;27;20019;-80
2023/10/10 17:01:12;;;;;;;11.68;6.40;;;;;;;18.86;69.55;101519.06;5112281;27;20027;-80
2023/10/10 17:03:43;;;;;;;12.68;5.35;;;;;;;18.75;71.50;101514.75;5092362;28;20032;-83
2023/10/10 17:06:13;;;;;;;11.90;5.07;;;;;;;18.70;71.86;101513.53;5116784;27;20411;-82
2023/10/10 17:08:39;;;;;;;9.43;5.47;;;;;;;18.62;71.25;101510.78;5118521;27;20027;-81
2023/10/10 17:11:08;;;;;;;14.77;5.15;;;;;;;18.54;70.71;101510.66;5115044;27;20612;-81
2023/10/10 17:13:39;;;;;;;12.00;5.60;;;;;;;18.52;71.07;101505.47;5106255;27;20019;-81
2023/10/10 17:16:13;;;;;;;12.75;5.38;;;;;;;18.41;71.38;101505.66;5124322;27;20073;-81
2023/10/10 17:18:43;;;;;;;10.35;5.45;;;;;;;18.34;72.36;101507.25;5125007;27;20431;-81
2023/10/10 17:21:12;;;;;;;12.63;5.70;;;;;;;18.30;72.57;101501.38;5132760;27;20102;-81
2023/10/10 17:23:38;;;;;;;11.32;5.00;;;;;;;18.24;73.10;101496.63;5107181;27;20368;-81
2023/10/10 17:26:04;;;;;;;12.13;5.40;;;;;;;18.19;72.25;101498.91;5099716;28;20020;-87
2023/10/10 17:28:30;;;;;;;15.10;6.18;;;;;;;18.14;74.65;101495.84;5114584;27;20106;-81
2023/10/10 17:30:58;;;;;;;10.02;5.65;;;;;;;18.07;75.16;101495.59;5081960;28;20024;-81
2023/10/10 17:33:24;;;;;;;12.48;5.25;;;;;;;18.02;75.39;101495.19;5109859;27;20027;-81
2023/10/10 17:35:50;;;;;;;12.32;5.28;;;;;;;17.95;75.40;101495.91;5130517;27;20083;-81
2023/10/10 17:38:15;;;;;;;12.23;5.53;;;;;;;17.92;75.48;101490.88;5110890;27;20027;-81
2023/10/10 17:40:40;;;;;;;12.27;5.65;;;;;;;17.82;74.74;101490.91;5112330;27;20087;-87
2023/10/10 17:43:12;;;;;;;10.23;5.95;;;;;;;17.83;74.79;101492.59;5126727;27;20038;-88
2023/10/10 17:45:41;;;;;;;8.70;5.55;;;;;;;17.75;75.85;101479.16;5131920;27;20092;-87
2023/10/10 17:48:14;;;;;;;14.18;5.75;;;;;;;17.72;75.22;101484.78;5130568;27;21725;-87
2023/10/10 17:50:43;;;;;;;11.80;5.00;;;;;;;17.67;75.42;101487.03;5097040;28;20035;-80
2023/10/10 17:53:12;;;;;;;12.23;5.80;;;;;;;17.62;75.85;101483.94;5124304;27;20023;-80
2023/10/10 17:55:47;;;;;;;13.57;5.30;;;;;;;17.59;76.51;101481.53;5101589;27;20031;-81
2023/10/10 17:58:14;;;;;;;16.38;5.47;;;;;;;17.57;75.77;101476.34;5102128;28;20066;-81
2023/10/10 18:00:40;;;;;;;13.05;5.97;;;;;;;17.48;76.47;101483.38;5111263;27;20027;-81
2023/10/10 18:03:07;;;;;;;11.23;5.43;;;;;;;17.51;76.20;101475.13;5112373;27;20114;-81
2023/10/10 18:05:41;;;;;;;11.63;5.32;;;;;;;17.46;77.16;101484.50;5101820;28;20106;-81
2023/10/10 18:08:07;;;;;;;12.43;5.80;;;;;;;17.43;76.40;101475.00;5110720;27;20079;-81
2023/10/10 18:10:37;;;;;;;9.45;5.60;;;;;;;17.40;77.25;101483.25;5123430;27;20426;-81
2023/10/10 18:13:11;;;;;;;12.07;5.10;;;;;;;17.37;78.02;101480.88;5082678;28;20025;-81
2023/10/10 18:15:40;;;;;;;10.68;5.90;;;;;;;17.34;77.29;101481.16;5126855;27;20023;-81
2023/10/10 18:18:07;;;;;;;11.27;5.07;;;;;;;17.33;77.36;101479.50;5101328;27;20023;-81
2023/10/10 18:20:43;;;;;;;10.23;5.45;;;;;;;17.30;77.85;101469.13;5121000;27;20043;-88
2023/10/10 18:23:09;;;;;;;17.63;5.75;;;;;;;17.28;78.14;101475.59;5132306;27;20098;-81
2023/10/10 18:25:39;;;;;;;14.32;5.30;;;;;;;17.28;77.83;101473.75;5129314;27;20014;-81
2023/10/10 18:28:08;;;;;;;10.82;5.45;;;;;;;17.25;78.12;101466.06;5117946;27;20516;-81
2023/10/10 18:30:38;;;;;;;10.38;5.28;;;;;;;17.22;78.45;101461.03;5111342;27;20453;-81
2023/10/10 18:33:11;;;;;;;9.02;5.03;;;;;;;17.22;78.45;101461.03;5100369;28;20098;-81
2023/10/10 18:35:41;;;;;;;12.85;5.05;;;;;;;17.22;78.52;101466.34;5102218;27;20031;-81
2023/10/10 18:38:07;;;;;;;9.02;4.60;;;;;;;17.20;78.83;101462.97;5095439;27;20480;-81
2023/10/10 18:40:35;;;;;;;11.60;5.07;;;;;;;17.21;78.92;101464.63;5119089;27;20027;-81
2023/10/10 18:43:04;;;;;;;13.88;5.25;;;;;;;17.24;78.61;101459.06;5107220;27;20047;-81
2023/10/10 18:45:32;;;;;;;13.00;5.50;;;;;;;17.25;78.92;101454.59;5125909;27;20119;-81
2023/10/10 18:47:58;;;;;;;12.23;5.25;;;;;;;17.24;78.82;101459.06;5112058;27;20473;-80
2023/10/10 18:50:24;;;;;;;12.15;4.82;;;;;;;17.27;78.96;101458.78;5099307;27;20042;-81
2023/10/10 18:52:52;;;;;;;11.25;5.22;;;;;;;17.25;79.74;101459.91;5119393;27;20418;-81
2023/10/10 18:55:19;;;;;;;11.75;5.35;;;;;;;17.26;79.53;101462.44;5112860;27;20016;-80